sensor_id;sensor_type;location;lat;lon;timestamp;temperature;humidity
70184;DHT22;57554;51.546;6.776;2023-05-19T00:00:48;10.10;53.50
70184;DHT22;57554;51.546;6.776;2023-05-19T00:03:14;10.10;53.70
70184;DHT22;57554;51.546;6.776;2023-05-19T00:05:41;10.00;53.70
70184;DHT22;57554;51.546;6.776;2023-05-19T00:08:11;10.00;53.90
70184;DHT22;57554;51.546;6.776;2023-05-19T00:10:41;10.00;54.10
70184;DHT22;57554;51.546;6.776;2023-05-19T00:13:07;10.00;54.20
70184;DHT22;57554;51.546;6.776;2023-05-19T00:15:37;9.90;54.20
70184;DHT22;57554;51.546;6.776;2023-05-19T00:18:04;9.90;54.20
70184;DHT22;57554;51.546;6.776;2023-05-19T00:20:30;9.90;54.30
70184;DHT22;57554;51.546;6.776;2023-05-19T00:22:58;9.80;54.30
70184;DHT22;57554;51.546;6.776;2023-05-19T00:25:24;9.80;54.30
70184;DHT22;57554;51.546;6.776;2023-05-19T00:27:50;9.80;54.30
70184;DHT22;57554;51.546;6.776;2023-05-19T00:30:16;9.80;54.50
70184;DHT22;57554;51.546;6.776;2023-05-19T00:32:41;9.80;54.40
70184;DHT22;57554;51.546;6.776;2023-05-19T00:35:10;9.70;54.50
70184;DHT22;57554;51.546;6.776;2023-05-19T00:37:36;9.70;54.40
70184;DHT22;57554;51.546;6.776;2023-05-19T00:40:02;9.70;54.40
70184;DHT22;57554;51.546;6.776;2023-05-19T00:42:30;9.70;54.40
70184;DHT22;57554;51.546;6.776;2023-05-19T00:45:03;9.70;54.50
70184;DHT22;57554;51.546;6.776;2023-05-19T00:47:28;9.60;54.60
70184;DHT22;57554;51.546;6.776;2023-05-19T00:49:56;9.60;54.60
70184;DHT22;57554;51.546;6.776;2023-05-19T00:52:22;9.50;54.70
70184;DHT22;57554;51.546;6.776;2023-05-19T00:54:48;9.50;54.80
70184;DHT22;57554;51.546;6.776;2023-05-19T00:57:15;9.50;55.00
70184;DHT22;57554;51.546;6.776;2023-05-19T00:59:44;9.40;55.10
70184;DHT22;57554;51.546;6.776;2023-05-19T01:02:10;9.40;55.20
70184;DHT22;57554;51.546;6.776;2023-05-19T01:04:39;9.30;55.20
70184;DHT22;57554;51.546;6.776;2023-05-19T01:07:06;9.30;55.30
70184;DHT22;57554;51.546;6.776;2023-05-19T01:09:35;9.20;55.40
70184;DHT22;57554;51.546;6.776;2023-05-19T01:12:01;9.20;55.60
70184;DHT22;57554;51.546;6.776;2023-05-19T01:14:30;9.20;55.60
70184;DHT22;57554;51.546;6.776;2023-05-19T01:19:56;9.10;55.90
70184;DHT22;57554;51.546;6.776;2023-05-19T01:22:58;9.00;55.90
70184;DHT22;57554;51.546;6.776;2023-05-19T01:30:57;8.90;56.20
70184;DHT22;57554;51.546;6.776;2023-05-19T01:33:29;8.90;56.20
70184;DHT22;57554;51.546;6.776;2023-05-19T01:35:58;8.80;56.20
70184;DHT22;57554;51.546;6.776;2023-05-19T01:38:27;8.80;56.30
70184;DHT22;57554;51.546;6.776;2023-05-19T01:40:56;8.80;56.70
70184;DHT22;57554;51.546;6.776;2023-05-19T01:43:24;8.80;56.70
70184;DHT22;57554;51.546;6.776;2023-05-19T01:45:51;8.70;56.80
70184;DHT22;57554;51.546;6.776;2023-05-19T01:48:17;8.70;56.90
70184;DHT22;57554;51.546;6.776;2023-05-19T01:50:44;8.70;57.00
70184;DHT22;57554;51.546;6.776;2023-05-19T01:53:10;8.60;57.20
70184;DHT22;57554;51.546;6.776;2023-05-19T01:55:43;8.60;57.20
70184;DHT22;57554;51.546;6.776;2023-05-19T01:59:03;8.60;57.50
70184;DHT22;57554;51.546;6.776;2023-05-19T02:04:12;8.50;57.30
70184;DHT22;57554;51.546;6.776;2023-05-19T02:07:12;8.50;57.60
70184;DHT22;57554;51.546;6.776;2023-05-19T02:10:18;8.50;57.60
70184;DHT22;57554;51.546;6.776;2023-05-19T02:12:52;8.40;57.50
70184;DHT22;57554;51.546;6.776;2023-05-19T02:15:24;8.40;57.50
70184;DHT22;57554;51.546;6.776;2023-05-19T02:21:33;8.40;57.80
70184;DHT22;57554;51.546;6.776;2023-05-19T02:23:58;8.30;57.60
70184;DHT22;57554;51.546;6.776;2023-05-19T02:26:24;8.30;57.80
70184;DHT22;57554;51.546;6.776;2023-05-19T02:28:53;8.30;57.80
70184;DHT22;57554;51.546;6.776;2023-05-19T02:31:22;8.30;57.90
70184;DHT22;57554;51.546;6.776;2023-05-19T02:33:48;8.30;58.10
70184;DHT22;57554;51.546;6.776;2023-05-19T02:36:13;8.20;58.10
70184;DHT22;57554;51.546;6.776;2023-05-19T02:38:39;8.20;58.20
70184;DHT22;57554;51.546;6.776;2023-05-19T02:41:05;8.20;58.20
70184;DHT22;57554;51.546;6.776;2023-05-19T02:43:33;8.20;58.20
70184;DHT22;57554;51.546;6.776;2023-05-19T02:45:59;8.20;58.30
70184;DHT22;57554;51.546;6.776;2023-05-19T02:48:25;8.10;58.30
70184;DHT22;57554;51.546;6.776;2023-05-19T02:50:53;8.10;58.40
70184;DHT22;57554;51.546;6.776;2023-05-19T02:53:19;8.10;58.60
70184;DHT22;57554;51.546;6.776;2023-05-19T02:55:45;8.10;58.50
70184;DHT22;57554;51.546;6.776;2023-05-19T02:58:11;8.10;58.70
70184;DHT22;57554;51.546;6.776;2023-05-19T03:00:39;8.10;58.80
70184;DHT22;57554;51.546;6.776;2023-05-19T03:03:05;8.10;59.00
70184;DHT22;57554;51.546;6.776;2023-05-19T03:05:31;8.10;59.00
70184;DHT22;57554;51.546;6.776;2023-05-19T03:07:59;8.10;59.00
70184;DHT22;57554;51.546;6.776;2023-05-19T03:10:25;8.10;59.00
70184;DHT22;57554;51.546;6.776;2023-05-19T03:12:54;8.10;59.10
70184;DHT22;57554;51.546;6.776;2023-05-19T03:15:20;8.00;59.30
70184;DHT22;57554;51.546;6.776;2023-05-19T03:17:50;8.00;59.40
70184;DHT22;57554;51.546;6.776;2023-05-19T03:20:16;8.00;59.70
70184;DHT22;57554;51.546;6.776;2023-05-19T03:22:45;8.00;59.70
70184;DHT22;57554;51.546;6.776;2023-05-19T03:25:11;8.00;59.70
70184;DHT22;57554;51.546;6.776;2023-05-19T03:27:36;8.00;59.50
70184;DHT22;57554;51.546;6.776;2023-05-19T03:30:02;8.00;59.60
70184;DHT22;57554;51.546;6.776;2023-05-19T03:32:29;8.00;59.60
70184;DHT22;57554;51.546;6.776;2023-05-19T03:34:56;8.00;59.60
70184;DHT22;57554;51.546;6.776;2023-05-19T03:37:25;7.90;59.60
70184;DHT22;57554;51.546;6.776;2023-05-19T03:39:51;7.90;59.70
70184;DHT22;57554;51.546;6.776;2023-05-19T03:42:22;7.90;59.70
70184;DHT22;57554;51.546;6.776;2023-05-19T03:44:48;7.90;59.70
70184;DHT22;57554;51.546;6.776;2023-05-19T03:47:14;7.90;59.60
70184;DHT22;57554;51.546;6.776;2023-05-19T03:49:40;7.90;59.70
70184;DHT22;57554;51.546;6.776;2023-05-19T03:52:08;7.90;59.70
70184;DHT22;57554;51.546;6.776;2023-05-19T03:54:35;7.80;59.70
70184;DHT22;57554;51.546;6.776;2023-05-19T03:57:04;7.90;59.80
70184;DHT22;57554;51.546;6.776;2023-05-19T03:59:30;7.80;59.90
70184;DHT22;57554;51.546;6.776;2023-05-19T04:02:00;7.80;60.10
70184;DHT22;57554;51.546;6.776;2023-05-19T04:04:28;7.80;60.30
70184;DHT22;57554;51.546;6.776;2023-05-19T04:06:56;7.80;60.40
70184;DHT22;57554;51.546;6.776;2023-05-19T04:09:22;7.80;60.50
70184;DHT22;57554;51.546;6.776;2023-05-19T04:11:51;7.90;60.60
70184;DHT22;57554;51.546;6.776;2023-05-19T04:14:19;7.90;60.70
70184;DHT22;57554;51.546;6.776;2023-05-19T04:16:45;7.90;60.70
70184;DHT22;57554;51.546;6.776;2023-05-19T04:19:11;7.90;60.80
70184;DHT22;57554;51.546;6.776;2023-05-19T04:21:37;7.90;60.80
70184;DHT22;57554;51.546;6.776;2023-05-19T04:24:06;7.90;60.90
70184;DHT22;57554;51.546;6.776;2023-05-19T04:26:37;8.00;60.90
70184;DHT22;57554;51.546;6.776;2023-05-19T04:29:06;8.00;60.90
70184;DHT22;57554;51.546;6.776;2023-05-19T04:31:31;8.10;60.90
70184;DHT22;57554;51.546;6.776;2023-05-19T04:34:03;8.10;61.00
70184;DHT22;57554;51.546;6.776;2023-05-19T04:36:40;8.20;61.00
70184;DHT22;57554;51.546;6.776;2023-05-19T04:39:15;8.20;61.10
70184;DHT22;57554;51.546;6.776;2023-05-19T04:41:50;8.20;60.90
70184;DHT22;57554;51.546;6.776;2023-05-19T04:44:16;8.20;60.90
70184;DHT22;57554;51.546;6.776;2023-05-19T04:46:44;8.30;60.80
70184;DHT22;57554;51.546;6.776;2023-05-19T04:49:16;8.40;60.80
70184;DHT22;57554;51.546;6.776;2023-05-19T04:51:48;8.40;60.90
70184;DHT22;57554;51.546;6.776;2023-05-19T04:54:17;8.50;60.90
70184;DHT22;57554;51.546;6.776;2023-05-19T04:56:46;8.50;61.00
70184;DHT22;57554;51.546;6.776;2023-05-19T04:59:11;8.60;61.20
70184;DHT22;57554;51.546;6.776;2023-05-19T05:01:40;8.70;61.20
70184;DHT22;57554;51.546;6.776;2023-05-19T05:04:09;8.70;61.30
70184;DHT22;57554;51.546;6.776;2023-05-19T05:06:44;8.80;61.40
70184;DHT22;57554;51.546;6.776;2023-05-19T05:09:15;8.90;61.60
70184;DHT22;57554;51.546;6.776;2023-05-19T05:11:47;9.00;61.50
70184;DHT22;57554;51.546;6.776;2023-05-19T05:14:16;9.20;61.60
70184;DHT22;57554;51.546;6.776;2023-05-19T05:16:51;9.40;61.50
70184;DHT22;57554;51.546;6.776;2023-05-19T05:19:26;9.70;61.50
70184;DHT22;57554;51.546;6.776;2023-05-19T05:22:02;9.90;61.20
70184;DHT22;57554;51.546;6.776;2023-05-19T05:24:29;10.20;60.80
70184;DHT22;57554;51.546;6.776;2023-05-19T05:27:16;10.40;60.40
70184;DHT22;57554;51.546;6.776;2023-05-19T05:29:47;10.70;60.10
70184;DHT22;57554;51.546;6.776;2023-05-19T05:32:35;10.90;59.90
70184;DHT22;57554;51.546;6.776;2023-05-19T05:35:01;11.20;59.40
70184;DHT22;57554;51.546;6.776;2023-05-19T05:40:49;11.60;58.80
70184;DHT22;57554;51.546;6.776;2023-05-19T05:46:38;12.00;58.20
70184;DHT22;57554;51.546;6.776;2023-05-19T05:49:04;12.20;57.90
70184;DHT22;57554;51.546;6.776;2023-05-19T05:51:36;12.40;57.70
70184;DHT22;57554;51.546;6.776;2023-05-19T06:01:08;13.20;56.20
70184;DHT22;57554;51.546;6.776;2023-05-19T06:03:40;13.50;55.90
70184;DHT22;57554;51.546;6.776;2023-05-19T06:06:09;13.70;55.40
70184;DHT22;57554;51.546;6.776;2023-05-19T06:08:36;13.90;54.70
70184;DHT22;57554;51.546;6.776;2023-05-19T06:11:04;14.00;54.40
70184;DHT22;57554;51.546;6.776;2023-05-19T06:17:14;14.40;53.60
70184;DHT22;57554;51.546;6.776;2023-05-19T06:19:40;14.60;53.10
70184;DHT22;57554;51.546;6.776;2023-05-19T06:22:09;14.70;52.80
70184;DHT22;57554;51.546;6.776;2023-05-19T06:24:50;14.80;52.40
70184;DHT22;57554;51.546;6.776;2023-05-19T06:27:16;14.90;52.30
70184;DHT22;57554;51.546;6.776;2023-05-19T06:29:42;15.00;51.60
70184;DHT22;57554;51.546;6.776;2023-05-19T06:32:25;15.10;51.00
70184;DHT22;57554;51.546;6.776;2023-05-19T06:34:57;15.20;51.00
70184;DHT22;57554;51.546;6.776;2023-05-19T06:37:23;15.40;51.00
70184;DHT22;57554;51.546;6.776;2023-05-19T06:39:52;15.50;50.90
70184;DHT22;57554;51.546;6.776;2023-05-19T06:42:21;15.70;50.70
70184;DHT22;57554;51.546;6.776;2023-05-19T06:44:54;15.90;50.10
70184;DHT22;57554;51.546;6.776;2023-05-19T06:47:26;16.10;49.40
70184;DHT22;57554;51.546;6.776;2023-05-19T06:49:52;16.30;48.80
70184;DHT22;57554;51.546;6.776;2023-05-19T06:52:33;16.40;48.60
70184;DHT22;57554;51.546;6.776;2023-05-19T06:55:44;16.60;47.70
70184;DHT22;57554;51.546;6.776;2023-05-19T07:04:54;17.20;46.60
70184;DHT22;57554;51.546;6.776;2023-05-19T07:07:22;17.40;46.20
70184;DHT22;57554;51.546;6.776;2023-05-19T07:12:49;17.80;45.90
70184;DHT22;57554;51.546;6.776;2023-05-19T07:15:27;17.90;45.20
70184;DHT22;57554;51.546;6.776;2023-05-19T07:17:57;18.00;44.70
70184;DHT22;57554;51.546;6.776;2023-05-19T07:20:47;18.20;45.20
70184;DHT22;57554;51.546;6.776;2023-05-19T07:23:34;18.30;44.20
70184;DHT22;57554;51.546;6.776;2023-05-19T07:26:03;18.50;44.40
70184;DHT22;57554;51.546;6.776;2023-05-19T07:28:31;18.60;44.20
70184;DHT22;57554;51.546;6.776;2023-05-19T07:31:01;18.70;43.90
70184;DHT22;57554;51.546;6.776;2023-05-19T07:33:33;18.90;44.00
70184;DHT22;57554;51.546;6.776;2023-05-19T07:36:07;19.10;43.10
70184;DHT22;57554;51.546;6.776;2023-05-19T07:38:49;19.30;43.00
70184;DHT22;57554;51.546;6.776;2023-05-19T07:41:22;19.60;42.50
70184;DHT22;57554;51.546;6.776;2023-05-19T07:47:31;20.10;40.80
70184;DHT22;57554;51.546;6.776;2023-05-19T07:50:02;20.30;40.30
70184;DHT22;57554;51.546;6.776;2023-05-19T07:52:28;20.40;40.30
70184;DHT22;57554;51.546;6.776;2023-05-19T07:54:54;20.50;40.00
70184;DHT22;57554;51.546;6.776;2023-05-19T08:00:45;20.90;39.90
70184;DHT22;57554;51.546;6.776;2023-05-19T08:03:17;21.10;38.50
70184;DHT22;57554;51.546;6.776;2023-05-19T08:06:22;21.10;38.30
70184;DHT22;57554;51.546;6.776;2023-05-19T08:08:58;21.40;38.90
70184;DHT22;57554;51.546;6.776;2023-05-19T08:11:30;21.60;39.00
70184;DHT22;57554;51.546;6.776;2023-05-19T08:14:01;21.80;38.80
70184;DHT22;57554;51.546;6.776;2023-05-19T08:16:33;22.10;37.80
70184;DHT22;57554;51.546;6.776;2023-05-19T08:19:02;22.30;36.70
70184;DHT22;57554;51.546;6.776;2023-05-19T08:21:36;22.50;37.40
70184;DHT22;57554;51.546;6.776;2023-05-19T08:24:09;22.60;36.50
70184;DHT22;57554;51.546;6.776;2023-05-19T08:36:57;23.30;35.30
70184;DHT22;57554;51.546;6.776;2023-05-19T08:43:04;23.50;33.90
70184;DHT22;57554;51.546;6.776;2023-05-19T08:46:19;23.50;32.80
70184;DHT22;57554;51.546;6.776;2023-05-19T08:53:03;23.40;33.40
70184;DHT22;57554;51.546;6.776;2023-05-19T08:59:31;23.70;33.10
70184;DHT22;57554;51.546;6.776;2023-05-19T09:05:29;23.50;32.20
70184;DHT22;57554;51.546;6.776;2023-05-19T09:18:26;24.50;31.60
70184;DHT22;57554;51.546;6.776;2023-05-19T10:52:38;28.60;25.90
70184;DHT22;57554;51.546;6.776;2023-05-19T10:55:08;28.50;25.60
70184;DHT22;57554;51.546;6.776;2023-05-19T11:01:05;28.20;25.80
70184;DHT22;57554;51.546;6.776;2023-05-19T11:03:55;28.10;26.10
70184;DHT22;57554;51.546;6.776;2023-05-19T11:06:28;28.00;25.60
70184;DHT22;57554;51.546;6.776;2023-05-19T11:09:19;27.60;24.90
70184;DHT22;57554;51.546;6.776;2023-05-19T11:11:53;27.30;25.90
70184;DHT22;57554;51.546;6.776;2023-05-19T11:14:28;27.30;26.50
70184;DHT22;57554;51.546;6.776;2023-05-19T11:16:59;27.30;26.20
70184;DHT22;57554;51.546;6.776;2023-05-19T11:25:50;27.40;25.20
70184;DHT22;57554;51.546;6.776;2023-05-19T11:28:19;27.40;25.30
70184;DHT22;57554;51.546;6.776;2023-05-19T11:30:49;27.30;25.90
70184;DHT22;57554;51.546;6.776;2023-05-19T11:33:19;27.40;26.00
70184;DHT22;57554;51.546;6.776;2023-05-19T11:35:55;27.40;25.50
70184;DHT22;57554;51.546;6.776;2023-05-19T11:38:25;27.50;26.00
70184;DHT22;57554;51.546;6.776;2023-05-19T11:40:55;27.70;26.40
70184;DHT22;57554;51.546;6.776;2023-05-19T11:43:52;27.80;25.70
70184;DHT22;57554;51.546;6.776;2023-05-19T11:46:26;28.00;26.00
70184;DHT22;57554;51.546;6.776;2023-05-19T11:49:04;28.10;25.30
70184;DHT22;57554;51.546;6.776;2023-05-19T11:54:59;28.30;25.40
70184;DHT22;57554;51.546;6.776;2023-05-19T12:04:00;28.30;25.40
70184;DHT22;57554;51.546;6.776;2023-05-19T12:06:47;28.20;24.70
70184;DHT22;57554;51.546;6.776;2023-05-19T12:09:31;28.00;25.40
70184;DHT22;57554;51.546;6.776;2023-05-19T12:11:57;27.80;25.50
70184;DHT22;57554;51.546;6.776;2023-05-19T12:14:47;27.70;25.50
70184;DHT22;57554;51.546;6.776;2023-05-19T12:17:19;27.60;25.20
70184;DHT22;57554;51.546;6.776;2023-05-19T12:19:53;27.40;25.80
70184;DHT22;57554;51.546;6.776;2023-05-19T12:22:31;27.20;26.00
70184;DHT22;57554;51.546;6.776;2023-05-19T12:25:00;27.10;26.40
70184;DHT22;57554;51.546;6.776;2023-05-19T12:27:29;27.10;25.50
70184;DHT22;57554;51.546;6.776;2023-05-19T12:29:59;27.10;25.30
70184;DHT22;57554;51.546;6.776;2023-05-19T12:32:37;27.10;25.60
70184;DHT22;57554;51.546;6.776;2023-05-19T12:35:06;26.80;24.70
70184;DHT22;57554;51.546;6.776;2023-05-19T12:37:42;26.50;25.20
70184;DHT22;57554;51.546;6.776;2023-05-19T12:46:39;26.20;25.80
70184;DHT22;57554;51.546;6.776;2023-05-19T12:49:11;26.00;26.50
70184;DHT22;57554;51.546;6.776;2023-05-19T12:55:08;25.80;26.30
70184;DHT22;57554;51.546;6.776;2023-05-19T12:57:51;25.70;26.40
70184;DHT22;57554;51.546;6.776;2023-05-19T13:00:31;25.60;26.20
70184;DHT22;57554;51.546;6.776;2023-05-19T13:02:58;25.60;26.40
70184;DHT22;57554;51.546;6.776;2023-05-19T13:05:50;25.60;26.50
70184;DHT22;57554;51.546;6.776;2023-05-19T13:11:37;25.50;26.50
70184;DHT22;57554;51.546;6.776;2023-05-19T13:17:26;25.40;26.80
70184;DHT22;57554;51.546;6.776;2023-05-19T13:19:51;25.10;26.90
70184;DHT22;57554;51.546;6.776;2023-05-19T13:22:17;25.00;27.00
70184;DHT22;57554;51.546;6.776;2023-05-19T13:24:43;25.00;27.70
70184;DHT22;57554;51.546;6.776;2023-05-19T13:27:17;25.00;27.90
70184;DHT22;57554;51.546;6.776;2023-05-19T13:29:43;24.90;27.00
70184;DHT22;57554;51.546;6.776;2023-05-19T13:32:12;24.70;28.40
70184;DHT22;57554;51.546;6.776;2023-05-19T13:34:37;24.60;28.90
70184;DHT22;57554;51.546;6.776;2023-05-19T13:37:03;24.70;29.20
70184;DHT22;57554;51.546;6.776;2023-05-19T13:39:29;24.80;28.60
70184;DHT22;57554;51.546;6.776;2023-05-19T13:41:56;24.70;28.10
70184;DHT22;57554;51.546;6.776;2023-05-19T13:44:22;24.60;27.70
70184;DHT22;57554;51.546;6.776;2023-05-19T13:46:50;24.50;27.90
70184;DHT22;57554;51.546;6.776;2023-05-19T13:49:15;24.40;27.80
70184;DHT22;57554;51.546;6.776;2023-05-19T13:55:28;24.30;28.20
70184;DHT22;57554;51.546;6.776;2023-05-19T13:58:00;24.20;29.20
70184;DHT22;57554;51.546;6.776;2023-05-19T14:00:32;24.30;28.70
70184;DHT22;57554;51.546;6.776;2023-05-19T14:02:59;24.30;28.40
70184;DHT22;57554;51.546;6.776;2023-05-19T14:08:47;24.40;28.30
70184;DHT22;57554;51.546;6.776;2023-05-19T14:11:17;24.40;28.80
70184;DHT22;57554;51.546;6.776;2023-05-19T14:13:44;24.30;28.00
70184;DHT22;57554;51.546;6.776;2023-05-19T14:16:16;24.20;28.00
70184;DHT22;57554;51.546;6.776;2023-05-19T14:18:42;24.20;28.80
70184;DHT22;57554;51.546;6.776;2023-05-19T14:21:08;24.30;29.00
70184;DHT22;57554;51.546;6.776;2023-05-19T14:23:56;24.30;28.60
70184;DHT22;57554;51.546;6.776;2023-05-19T14:26:22;24.20;28.30
70184;DHT22;57554;51.546;6.776;2023-05-19T14:28:47;24.10;28.40
70184;DHT22;57554;51.546;6.776;2023-05-19T14:38:25;23.90;28.30
70184;DHT22;57554;51.546;6.776;2023-05-19T14:40:50;23.80;27.90
70184;DHT22;57554;51.546;6.776;2023-05-19T14:43:22;23.70;28.90
70184;DHT22;57554;51.546;6.776;2023-05-19T14:45:48;23.70;28.70
70184;DHT22;57554;51.546;6.776;2023-05-19T14:48:14;23.70;29.10
70184;DHT22;57554;51.546;6.776;2023-05-19T14:50:40;23.70;29.00
70184;DHT22;57554;51.546;6.776;2023-05-19T14:53:05;23.70;29.40
70184;DHT22;57554;51.546;6.776;2023-05-19T14:55:31;23.80;29.40
70184;DHT22;57554;51.546;6.776;2023-05-19T15:04:59;23.90;28.60
70184;DHT22;57554;51.546;6.776;2023-05-19T15:07:25;23.80;29.30
70184;DHT22;57554;51.546;6.776;2023-05-19T15:13:19;23.90;29.60
70184;DHT22;57554;51.546;6.776;2023-05-19T15:15:54;23.70;28.90
70184;DHT22;57554;51.546;6.776;2023-05-19T15:18:20;23.50;29.10
70184;DHT22;57554;51.546;6.776;2023-05-19T15:20:47;23.40;29.20
70184;DHT22;57554;51.546;6.776;2023-05-19T15:23:15;23.40;28.70
70184;DHT22;57554;51.546;6.776;2023-05-19T15:25:49;23.50;29.00
70184;DHT22;57554;51.546;6.776;2023-05-19T15:28:15;23.60;29.40
70184;DHT22;57554;51.546;6.776;2023-05-19T15:30:44;23.60;29.80
70184;DHT22;57554;51.546;6.776;2023-05-19T15:33:36;23.60;29.70
70184;DHT22;57554;51.546;6.776;2023-05-19T15:36:01;23.40;29.20
70184;DHT22;57554;51.546;6.776;2023-05-19T15:38:27;23.20;29.30
70184;DHT22;57554;51.546;6.776;2023-05-19T15:40:53;23.00;29.40
70184;DHT22;57554;51.546;6.776;2023-05-19T15:43:34;23.00;29.90
70184;DHT22;57554;51.546;6.776;2023-05-19T15:46:00;23.00;30.30
70184;DHT22;57554;51.546;6.776;2023-05-19T15:48:25;23.10;30.10
70184;DHT22;57554;51.546;6.776;2023-05-19T15:50:56;23.10;30.40
70184;DHT22;57554;51.546;6.776;2023-05-19T15:53:45;23.10;30.30
70184;DHT22;57554;51.546;6.776;2023-05-19T15:56:11;23.20;29.90
70184;DHT22;57554;51.546;6.776;2023-05-19T15:58:38;23.20;29.70
70184;DHT22;57554;51.546;6.776;2023-05-19T16:01:07;23.20;30.20
70184;DHT22;57554;51.546;6.776;2023-05-19T16:03:32;23.30;30.50
70184;DHT22;57554;51.546;6.776;2023-05-19T16:06:04;23.30;30.60
70184;DHT22;57554;51.546;6.776;2023-05-19T16:08:36;23.30;30.20
70184;DHT22;57554;51.546;6.776;2023-05-19T16:11:02;23.30;30.70
70184;DHT22;57554;51.546;6.776;2023-05-19T16:13:37;23.30;30.20
70184;DHT22;57554;51.546;6.776;2023-05-19T16:16:09;23.30;29.90
70184;DHT22;57554;51.546;6.776;2023-05-19T16:18:34;23.30;30.30
70184;DHT22;57554;51.546;6.776;2023-05-19T16:21:16;23.20;30.10
70184;DHT22;57554;51.546;6.776;2023-05-19T16:23:41;23.10;30.00
70184;DHT22;57554;51.546;6.776;2023-05-19T16:26:07;23.00;30.40
70184;DHT22;57554;51.546;6.776;2023-05-19T16:28:33;22.90;30.30
70184;DHT22;57554;51.546;6.776;2023-05-19T16:31:00;22.90;30.30
70184;DHT22;57554;51.546;6.776;2023-05-19T16:33:26;23.00;30.00
70184;DHT22;57554;51.546;6.776;2023-05-19T16:35:52;23.00;29.90
70184;DHT22;57554;51.546;6.776;2023-05-19T16:38:18;23.10;30.50
70184;DHT22;57554;51.546;6.776;2023-05-19T16:40:44;23.10;30.10
70184;DHT22;57554;51.546;6.776;2023-05-19T16:43:09;23.00;30.70
70184;DHT22;57554;51.546;6.776;2023-05-19T16:45:35;23.00;31.20
70184;DHT22;57554;51.546;6.776;2023-05-19T16:48:01;23.00;30.50
70184;DHT22;57554;51.546;6.776;2023-05-19T16:50:27;23.00;30.30
70184;DHT22;57554;51.546;6.776;2023-05-19T16:52:52;22.90;30.50
70184;DHT22;57554;51.546;6.776;2023-05-19T16:55:18;22.80;29.90
70184;DHT22;57554;51.546;6.776;2023-05-19T16:57:45;22.80;30.00
70184;DHT22;57554;51.546;6.776;2023-05-19T17:00:11;22.70;30.40
70184;DHT22;57554;51.546;6.776;2023-05-19T17:02:37;22.70;30.30
70184;DHT22;57554;51.546;6.776;2023-05-19T17:05:03;22.70;30.00
70184;DHT22;57554;51.546;6.776;2023-05-19T17:07:29;22.70;30.10
70184;DHT22;57554;51.546;6.776;2023-05-19T17:09:54;22.70;30.10
70184;DHT22;57554;51.546;6.776;2023-05-19T17:12:20;22.70;30.00
70184;DHT22;57554;51.546;6.776;2023-05-19T17:14:46;22.60;30.50
70184;DHT22;57554;51.546;6.776;2023-05-19T17:17:11;22.50;30.30
70184;DHT22;57554;51.546;6.776;2023-05-19T17:19:37;22.50;30.50
70184;DHT22;57554;51.546;6.776;2023-05-19T17:22:03;22.40;30.60
70184;DHT22;57554;51.546;6.776;2023-05-19T17:24:28;22.40;30.20
70184;DHT22;57554;51.546;6.776;2023-05-19T17:26:56;22.40;30.30
70184;DHT22;57554;51.546;6.776;2023-05-19T17:29:22;22.50;30.80
70184;DHT22;57554;51.546;6.776;2023-05-19T17:31:47;22.50;30.20
70184;DHT22;57554;51.546;6.776;2023-05-19T17:34:13;22.50;30.10
70184;DHT22;57554;51.546;6.776;2023-05-19T17:36:38;22.50;30.10
70184;DHT22;57554;51.546;6.776;2023-05-19T17:39:04;22.40;30.00
70184;DHT22;57554;51.546;6.776;2023-05-19T17:41:30;22.40;30.00
70184;DHT22;57554;51.546;6.776;2023-05-19T17:43:55;22.30;30.20
70184;DHT22;57554;51.546;6.776;2023-05-19T17:46:21;22.30;30.50
70184;DHT22;57554;51.546;6.776;2023-05-19T17:48:47;22.20;30.30
70184;DHT22;57554;51.546;6.776;2023-05-19T17:51:12;22.20;30.60
70184;DHT22;57554;51.546;6.776;2023-05-19T17:53:38;22.20;30.50
70184;DHT22;57554;51.546;6.776;2023-05-19T17:56:05;22.20;30.70
70184;DHT22;57554;51.546;6.776;2023-05-19T17:58:33;22.20;30.40
70184;DHT22;57554;51.546;6.776;2023-05-19T18:00:59;22.20;30.60
70184;DHT22;57554;51.546;6.776;2023-05-19T18:03:25;22.20;31.20
70184;DHT22;57554;51.546;6.776;2023-05-19T18:05:51;22.30;31.70
70184;DHT22;57554;51.546;6.776;2023-05-19T18:08:17;22.30;31.70
70184;DHT22;57554;51.546;6.776;2023-05-19T18:10:43;22.30;31.50
70184;DHT22;57554;51.546;6.776;2023-05-19T18:13:10;22.30;31.60
70184;DHT22;57554;51.546;6.776;2023-05-19T18:15:38;22.30;32.00
70184;DHT22;57554;51.546;6.776;2023-05-19T18:18:04;22.20;31.70
70184;DHT22;57554;51.546;6.776;2023-05-19T18:20:32;22.40;31.80
70184;DHT22;57554;51.546;6.776;2023-05-19T18:22:58;22.90;30.70
70184;DHT22;57554;51.546;6.776;2023-05-19T18:25:24;23.50;29.90
70184;DHT22;57554;51.546;6.776;2023-05-19T18:27:50;23.50;29.70
70184;DHT22;57554;51.546;6.776;2023-05-19T18:30:20;23.30;29.80
70184;DHT22;57554;51.546;6.776;2023-05-19T18:32:46;23.10;29.80
70184;DHT22;57554;51.546;6.776;2023-05-19T18:35:12;22.80;30.10
70184;DHT22;57554;51.546;6.776;2023-05-19T18:37:37;22.70;30.80
70184;DHT22;57554;51.546;6.776;2023-05-19T18:40:03;23.00;30.90
70184;DHT22;57554;51.546;6.776;2023-05-19T18:42:29;23.40;30.70
70184;DHT22;57554;51.546;6.776;2023-05-19T18:44:55;23.80;29.80
70184;DHT22;57554;51.546;6.776;2023-05-19T18:47:20;24.00;29.60
70184;DHT22;57554;51.546;6.776;2023-05-19T18:49:47;24.20;29.50
70184;DHT22;57554;51.546;6.776;2023-05-19T18:52:13;24.30;29.10
70184;DHT22;57554;51.546;6.776;2023-05-19T18:54:39;24.30;29.00
70184;DHT22;57554;51.546;6.776;2023-05-19T18:57:09;24.30;29.00
70184;DHT22;57554;51.546;6.776;2023-05-19T18:59:35;24.20;28.80
70184;DHT22;57554;51.546;6.776;2023-05-19T19:02:01;24.00;28.80
70184;DHT22;57554;51.546;6.776;2023-05-19T19:04:27;23.70;29.00
70184;DHT22;57554;51.546;6.776;2023-05-19T19:06:53;23.40;29.00
70184;DHT22;57554;51.546;6.776;2023-05-19T19:09:18;22.90;29.60
70184;DHT22;57554;51.546;6.776;2023-05-19T19:11:44;22.40;30.30
70184;DHT22;57554;51.546;6.776;2023-05-19T19:14:10;22.00;30.60
70184;DHT22;57554;51.546;6.776;2023-05-19T19:16:35;21.60;30.90
70184;DHT22;57554;51.546;6.776;2023-05-19T19:19:02;21.20;31.30
70184;DHT22;57554;51.546;6.776;2023-05-19T19:21:28;21.00;31.90
70184;DHT22;57554;51.546;6.776;2023-05-19T19:23:55;20.80;32.10
70184;DHT22;57554;51.546;6.776;2023-05-19T19:26:24;20.50;32.20
70184;DHT22;57554;51.546;6.776;2023-05-19T19:28:51;20.30;32.50
70184;DHT22;57554;51.546;6.776;2023-05-19T19:31:17;20.10;32.70
70184;DHT22;57554;51.546;6.776;2023-05-19T19:33:43;19.90;32.90
70184;DHT22;57554;51.546;6.776;2023-05-19T19:36:09;19.70;33.20
70184;DHT22;57554;51.546;6.776;2023-05-19T19:38:36;19.60;33.70
70184;DHT22;57554;51.546;6.776;2023-05-19T19:41:02;19.50;34.30
70184;DHT22;57554;51.546;6.776;2023-05-19T19:43:28;19.30;34.20
70184;DHT22;57554;51.546;6.776;2023-05-19T19:46:00;19.20;34.60
70184;DHT22;57554;51.546;6.776;2023-05-19T19:48:27;19.00;35.10